createdAt,value
2019-04-07T00:00:14.329Z,16.03
2019-04-07T00:02:45.299Z,16.67
2019-04-07T00:05:17.306Z,16.40
2019-04-07T00:07:49.491Z,14.50
2019-04-07T00:10:21.879Z,16.17
2019-04-07T00:12:51.070Z,14.83
2019-04-07T00:15:24.180Z,15.93
2019-04-07T00:17:53.371Z,15.53
2019-04-07T00:20:26.849Z,14.97
2019-04-07T00:22:56.074Z,17.17
2019-04-07T00:25:34.306Z,16.27
2019-04-07T00:28:04.033Z,16.20
2019-04-07T00:30:39.990Z,16.00
2019-04-07T00:33:09.315Z,16.97
2019-04-07T00:35:38.919Z,15.40
2019-04-07T00:38:09.733Z,16.00
2019-04-07T00:40:40.714Z,15.70
2019-04-07T00:43:13.624Z,15.60
2019-04-07T00:45:42.909Z,17.87
2019-04-07T00:48:12.285Z,15.17
2019-04-07T00:50:41.452Z,16.90
2019-04-07T00:53:11.010Z,17.00
2019-04-07T00:55:40.843Z,18.70
2019-04-07T00:58:10.200Z,17.00
2019-04-07T01:00:40.665Z,16.70
2019-04-07T01:03:11.546Z,17.23
2019-04-07T01:05:42.799Z,17.33
2019-04-07T01:08:14.226Z,16.07
2019-04-07T01:10:43.406Z,15.27
2019-04-07T01:13:12.487Z,15.87
2019-04-07T01:15:41.840Z,16.13
2019-04-07T01:18:13.134Z,18.37
2019-04-07T01:20:46.923Z,17.57
2019-04-07T01:23:18.194Z,16.83
2019-04-07T01:25:58.490Z,17.10
2019-04-07T01:28:36.281Z,18.67
2019-04-07T01:31:05.767Z,21.33
2019-04-07T01:33:40.919Z,19.50
2019-04-07T01:36:13.598Z,19.57
2019-04-07T01:38:46.080Z,19.20
2019-04-07T01:41:29.466Z,20.10
2019-04-07T01:44:06.698Z,18.03
2019-04-07T01:46:56.154Z,20.50
2019-04-07T01:49:36.389Z,19.90
2019-04-07T01:52:21.100Z,19.40
2019-04-07T01:55:18.091Z,18.90
2019-04-07T01:58:07.853Z,19.83
2019-04-07T02:00:56.593Z,18.50
2019-04-07T02:03:39.893Z,19.90
2019-04-07T02:06:17.876Z,18.80
2019-04-07T02:09:04.970Z,18.50
2019-04-07T02:11:51.905Z,19.90
2019-04-07T02:14:35.522Z,19.97
2019-04-07T02:17:31.749Z,18.80
2019-04-07T02:20:10.295Z,20.60
2019-04-07T02:22:47.697Z,18.83
2019-04-07T02:25:42.758Z,20.53
2019-04-07T02:28:29.845Z,19.97
2019-04-07T02:31:23.964Z,18.97
2019-04-07T02:34:11.785Z,19.10
2019-04-07T02:36:48.370Z,20.00
2019-04-07T02:39:42.426Z,19.60
2019-04-07T02:42:32.224Z,19.10
2019-04-07T02:45:36.619Z,22.77
2019-04-07T02:48:13.856Z,21.70
2019-04-07T02:50:48.498Z,22.07
2019-04-07T02:53:45.489Z,20.67
2019-04-07T02:56:26.911Z,20.83
2019-04-07T02:59:14.575Z,21.17
2019-04-07T03:02:08.160Z,20.30
2019-04-07T03:04:56.649Z,18.87
2019-04-07T03:07:47.829Z,21.70
2019-04-07T03:10:33.391Z,21.23
2019-04-07T03:13:19.049Z,20.83
2019-04-07T03:15:55.013Z,20.93
2019-04-07T03:18:52.842Z,22.37
2019-04-07T03:21:44.680Z,21.20
2019-04-07T03:24:33.520Z,20.07
2019-04-07T03:27:24.047Z,21.17
2019-04-07T03:30:06.022Z,20.63
2019-04-07T03:33:13.229Z,22.07
2019-04-07T03:35:56.842Z,21.63
2019-04-07T03:38:43.002Z,22.70
2019-04-07T03:41:34.932Z,19.43
2019-04-07T03:44:18.619Z,19.80
2019-04-07T03:47:03.612Z,22.40
2019-04-07T03:49:55.065Z,19.47
2019-04-07T03:53:01.716Z,22.27
2019-04-07T03:55:54.637Z,24.17
2019-04-07T03:59:01.852Z,22.47
2019-04-07T04:01:48.108Z,22.17
2019-04-07T04:04:37.800Z,20.40
2019-04-07T04:07:22.398Z,22.13
2019-04-07T04:10:03.398Z,18.93
2019-04-07T04:12:53.023Z,20.03
2019-04-07T04:15:29.765Z,20.10
2019-04-07T04:17:59.171Z,18.80
2019-04-07T04:20:30.258Z,18.67
2019-04-07T04:22:59.759Z,15.10
2019-04-07T04:25:34.562Z,16.57
2019-04-07T04:28:07.820Z,16.90
2019-04-07T04:30:37.133Z,17.90
2019-04-07T04:33:06.414Z,18.13
2019-04-07T04:35:35.558Z,19.47
2019-04-07T04:38:04.602Z,16.40
2019-04-07T04:40:33.852Z,21.00
2019-04-07T04:43:02.946Z,24.77
2019-04-07T04:45:34.127Z,22.17
2019-04-07T04:48:05.601Z,26.53
2019-04-07T04:50:35.611Z,23.40
2019-04-07T04:53:04.699Z,24.67
2019-04-07T04:55:35.045Z,24.40
2019-04-07T04:58:04.494Z,23.60
2019-04-07T05:00:34.402Z,25.90
2019-04-07T05:03:04.638Z,26.77
2019-04-07T05:05:35.742Z,26.30
2019-04-07T05:08:05.628Z,27.30
2019-04-07T05:10:35.851Z,29.13
2019-04-07T05:13:05.534Z,26.80
2019-04-07T05:15:35.129Z,28.53
2019-04-07T05:18:10.860Z,26.70
2019-04-07T05:20:43.217Z,29.30
2019-04-07T05:23:14.106Z,27.63
2019-04-07T05:25:43.879Z,26.80
2019-04-07T05:28:15.390Z,25.67
2019-04-07T05:30:48.067Z,26.70
2019-04-07T05:33:17.950Z,24.47
2019-04-07T05:35:46.992Z,25.40
2019-04-07T05:38:16.089Z,25.00
2019-04-07T05:40:45.166Z,25.07
2019-04-07T05:43:16.174Z,23.73
2019-04-07T05:45:45.544Z,25.20
2019-04-07T05:48:19.307Z,26.63
2019-04-07T05:50:48.808Z,24.50
2019-04-07T05:53:17.895Z,24.20
2019-04-07T05:55:47.558Z,23.57
2019-04-07T05:58:16.815Z,21.47
2019-04-07T06:00:48.607Z,24.00
2019-04-07T06:03:17.802Z,24.60
2019-04-07T06:05:48.253Z,22.13
2019-04-07T06:08:29.528Z,20.27
2019-04-07T06:10:57.869Z,21.03
2019-04-07T06:13:26.891Z,19.73
2019-04-07T06:15:57.531Z,21.57
2019-04-07T06:18:32.244Z,20.73
2019-04-07T06:20:58.519Z,19.67
2019-04-07T06:23:30.393Z,19.97
2019-04-07T06:25:59.458Z,19.83
2019-04-07T06:28:31.755Z,19.30
2019-04-07T06:31:03.162Z,20.30
2019-04-07T06:33:32.447Z,19.97
2019-04-07T06:36:01.536Z,20.07
2019-04-07T06:38:34.935Z,17.90
2019-04-07T06:41:08.657Z,20.83
2019-04-07T06:43:39.854Z,21.40
2019-04-07T06:46:30.635Z,20.43
2019-04-07T06:49:13.058Z,20.97
2019-04-07T06:52:04.642Z,19.40
2019-04-07T06:54:39.929Z,20.60
2019-04-07T06:57:21.785Z,19.60
2019-04-07T07:00:12.514Z,20.10
2019-04-07T07:03:11.621Z,21.13
2019-04-07T07:06:05.741Z,19.73
2019-04-07T07:08:59.075Z,19.00
2019-04-07T07:12:02.130Z,17.50
2019-04-07T07:14:54.979Z,18.00
2019-04-07T07:17:37.870Z,18.23
2019-04-07T07:20:45.208Z,19.50
2019-04-07T07:23:18.743Z,18.07
2019-04-07T07:25:48.593Z,18.13
2019-04-07T07:28:18.223Z,19.53
2019-04-07T07:30:51.881Z,18.63
2019-04-07T07:33:23.474Z,19.30
2019-04-07T07:35:52.741Z,19.10
2019-04-07T07:38:27.736Z,17.67
2019-04-07T07:41:00.094Z,19.40
2019-04-07T07:43:31.891Z,17.30
2019-04-07T07:46:05.758Z,17.87
2019-04-07T07:48:38.015Z,18.10
2019-04-07T07:51:12.945Z,19.97
2019-04-07T07:53:41.579Z,19.20
2019-04-07T07:56:13.611Z,18.17
2019-04-07T07:58:41.512Z,20.60
2019-04-07T08:01:13.845Z,19.50
2019-04-07T08:03:51.743Z,20.50
2019-04-07T08:06:22.712Z,19.23
2019-04-07T08:08:52.585Z,17.60
2019-04-07T08:11:21.918Z,20.57
2019-04-07T08:13:51.328Z,20.43
2019-04-07T08:16:29.484Z,20.27
2019-04-07T08:18:59.578Z,16.57
2019-04-07T08:21:29.131Z,16.80
2019-04-07T08:23:59.038Z,18.13
2019-04-07T08:26:28.925Z,17.80
2019-04-07T08:29:03.246Z,16.57
2019-04-07T08:31:33.757Z,16.10
2019-04-07T08:34:05.564Z,17.30
2019-04-07T08:36:35.754Z,18.30
2019-04-07T08:39:20.318Z,15.77
2019-04-07T08:41:42.228Z,17.30
2019-04-07T08:44:12.645Z,16.30
2019-04-07T08:46:44.206Z,17.23
2019-04-07T08:49:14.720Z,18.40
2019-04-07T08:51:43.919Z,14.97
2019-04-07T08:54:23.884Z,16.10
2019-04-07T08:56:56.303Z,16.87
2019-04-07T08:59:25.918Z,14.90
2019-04-07T09:01:55.797Z,15.67
2019-04-07T09:04:28.424Z,15.60
2019-04-07T09:07:00.685Z,15.57
2019-04-07T09:09:34.084Z,14.60
2019-04-07T09:11:59.509Z,16.37
2019-04-07T09:14:29.510Z,15.90
2019-04-07T09:17:32.186Z,17.57
2019-04-07T09:20:27.482Z,16.37
2019-04-07T09:23:09.195Z,13.77
2019-04-07T09:26:02.896Z,14.33
2019-04-07T09:28:53.426Z,17.17
2019-04-07T09:31:43.470Z,16.30
2019-04-07T09:34:25.153Z,15.63
2019-04-07T09:37:13.165Z,16.03
2019-04-07T09:40:05.564Z,17.43
2019-04-07T09:43:03.101Z,15.10
2019-04-07T09:45:51.864Z,15.57
2019-04-07T09:48:42.996Z,14.87
2019-04-07T09:51:52.857Z,13.90
2019-04-07T09:54:36.923Z,14.83
2019-04-07T09:57:40.829Z,15.43
2019-04-07T10:00:35.302Z,17.40
2019-04-07T10:03:23.379Z,14.13
2019-04-07T10:06:20.446Z,13.93
2019-04-07T10:09:14.581Z,13.53
2019-04-07T10:12:00.401Z,14.70
2019-04-07T10:14:48.846Z,14.30
2019-04-07T10:17:49.602Z,13.17
2019-04-07T10:20:36.878Z,14.03
2019-04-07T10:23:28.811Z,13.73
2019-04-07T10:26:24.689Z,14.40
2019-04-07T10:29:04.619Z,13.97
2019-04-07T10:31:51.879Z,12.80
2019-04-07T10:34:38.832Z,11.63
2019-04-07T10:37:32.213Z,14.30
2019-04-07T10:40:26.495Z,12.63
2019-04-07T10:43:19.607Z,11.27
2019-04-07T10:46:11.217Z,13.00
2019-04-07T10:49:00.281Z,12.50
2019-04-07T10:51:51.343Z,11.73
2019-04-07T10:54:43.810Z,11.07
2019-04-07T10:57:24.915Z,11.27
2019-04-07T11:00:17.977Z,12.30
2019-04-07T11:02:57.191Z,12.60
2019-04-07T11:05:44.782Z,12.60
2019-04-07T11:08:32.099Z,13.80
2019-04-07T11:11:23.193Z,13.13
2019-04-07T11:14:29.445Z,12.10
2019-04-07T11:17:08.110Z,11.37
2019-04-07T11:19:45.958Z,13.00
2019-04-07T11:22:33.783Z,11.53
2019-04-07T11:25:34.692Z,12.17
2019-04-07T11:28:24.140Z,12.00
2019-04-07T11:31:03.869Z,12.03
2019-04-07T11:33:50.381Z,11.73
2019-04-07T11:36:27.677Z,10.77
2019-04-07T11:39:19.223Z,11.83
2019-04-07T11:41:57.289Z,12.40
2019-04-07T11:44:37.523Z,11.63
2019-04-07T11:47:28.689Z,11.60
2019-04-07T11:50:28.802Z,11.97
2019-04-07T11:53:11.696Z,11.10
2019-04-07T11:56:09.896Z,10.77
2019-04-07T11:58:58.945Z,10.00
2019-04-07T12:01:56.709Z,9.83
2019-04-07T12:05:00.013Z,11.03
2019-04-07T12:08:01.725Z,10.37
2019-04-07T12:11:06.572Z,11.10
2019-04-07T12:13:56.763Z,10.37
2019-04-07T12:16:44.865Z,9.93
2019-04-07T12:19:36.734Z,10.10
2019-04-07T12:22:16.066Z,9.80
2019-04-07T12:25:16.994Z,13.20
2019-04-07T12:28:06.936Z,11.40
2019-04-07T12:31:08.589Z,10.43
2019-04-07T12:33:58.488Z,11.03
2019-04-07T12:37:03.907Z,11.87
2019-04-07T12:39:38.955Z,11.70
2019-04-07T12:42:40.299Z,12.60
2019-04-07T12:45:31.893Z,12.63
2019-04-07T12:48:30.670Z,12.53
2019-04-07T12:51:36.413Z,11.27
2019-04-07T12:54:31.851Z,10.93
2019-04-07T12:57:21.957Z,9.80
2019-04-07T13:00:02.503Z,12.73
2019-04-07T13:02:51.605Z,12.67
2019-04-07T13:05:39.200Z,12.80
2019-04-07T13:08:33.717Z,11.43
2019-04-07T13:11:38.648Z,11.13
2019-04-07T13:14:32.401Z,11.23
2019-04-07T13:17:21.444Z,13.67
2019-04-07T13:20:22.314Z,12.87
2019-04-07T13:23:01.827Z,12.60
2019-04-07T13:25:52.876Z,11.40
2019-04-07T13:31:31.874Z,11.17
2019-04-07T13:34:18.683Z,11.63
2019-04-07T13:37:18.877Z,10.93
2019-04-07T13:39:59.488Z,10.50
2019-04-07T13:42:42.830Z,12.20
2019-04-07T13:45:47.243Z,12.70
2019-04-07T13:48:41.191Z,11.33
2019-04-07T13:51:29.582Z,11.20
2019-04-07T13:54:30.820Z,10.27
2019-04-07T13:57:12.273Z,10.30
2019-04-07T13:59:48.877Z,12.80
2019-04-07T14:02:36.564Z,11.73
2019-04-07T14:05:14.958Z,13.47
2019-04-07T14:08:07.117Z,13.00
2019-04-07T14:11:08.431Z,11.20
2019-04-07T14:13:44.768Z,12.90
2019-04-07T14:16:32.319Z,13.70
2019-04-07T14:19:12.447Z,14.13
2019-04-07T14:22:03.268Z,12.93
2019-04-07T14:24:59.084Z,12.13
2019-04-07T14:27:43.884Z,12.10
2019-04-07T14:30:20.278Z,12.60
2019-04-07T14:33:11.192Z,12.70
2019-04-07T14:35:58.239Z,13.53
2019-04-07T14:38:56.010Z,12.10
2019-04-07T14:42:00.980Z,11.60
2019-04-07T14:44:44.664Z,11.70
2019-04-07T14:47:29.384Z,11.90
2019-04-07T14:50:13.069Z,10.73
2019-04-07T14:52:53.628Z,11.50
2019-04-07T14:55:45.167Z,10.27
2019-04-07T14:58:48.457Z,10.90
2019-04-07T15:01:39.658Z,9.90
2019-04-07T15:04:08.943Z,11.83
2019-04-07T15:06:42.357Z,11.10
2019-04-07T15:09:22.551Z,11.13
2019-04-07T15:12:15.876Z,9.90
2019-04-07T15:14:37.507Z,9.40
2019-04-07T15:17:12.044Z,11.00
2019-04-07T15:19:44.323Z,9.93
2019-04-07T15:22:13.481Z,11.00
2019-04-07T15:24:42.888Z,11.17
2019-04-07T15:27:17.521Z,9.97
2019-04-07T15:29:47.143Z,11.27
2019-04-07T15:32:21.159Z,10.53
2019-04-07T15:34:51.482Z,12.00
2019-04-07T15:37:29.259Z,11.97
2019-04-07T15:40:03.626Z,10.33
2019-04-07T15:42:40.399Z,11.53
2019-04-07T15:45:11.212Z,12.80
2019-04-07T15:47:37.088Z,11.40
2019-04-07T15:50:11.853Z,12.77
2019-04-07T15:52:44.310Z,12.10
2019-04-07T15:55:13.520Z,11.80
2019-04-07T15:57:44.281Z,12.90
2019-04-07T16:00:16.439Z,12.30
2019-04-07T16:02:49.260Z,12.53
2019-04-07T16:05:17.868Z,10.83
2019-04-07T16:07:52.754Z,12.80
2019-04-07T16:10:29.123Z,11.77
2019-04-07T16:13:00.115Z,12.27
2019-04-07T16:15:32.202Z,10.40
2019-04-07T16:18:08.588Z,11.83
2019-04-07T16:20:40.490Z,10.40
2019-04-07T16:23:12.805Z,9.80
2019-04-07T16:25:41.867Z,10.93
2019-04-07T16:28:15.975Z,11.83
2019-04-07T16:30:49.008Z,10.80
2019-04-07T16:33:17.771Z,11.43
2019-04-07T16:35:55.280Z,11.63
2019-04-07T16:38:22.625Z,13.80
2019-04-07T16:40:54.104Z,12.10
2019-04-07T16:43:26.162Z,11.00
2019-04-07T16:46:01.755Z,11.30
2019-04-07T16:48:36.042Z,11.60
2019-04-07T16:51:06.040Z,11.53
2019-04-07T16:53:37.931Z,10.73
2019-04-07T16:56:07.519Z,11.20
2019-04-07T16:58:39.143Z,12.10
2019-04-07T17:01:07.785Z,10.47
2019-04-07T17:03:39.854Z,10.53
2019-04-07T17:06:11.135Z,11.67
2019-04-07T17:08:43.401Z,15.53
2019-04-07T17:11:16.949Z,11.57
2019-04-07T17:13:47.594Z,10.37
2019-04-07T17:16:23.926Z,10.67
2019-04-07T17:18:56.291Z,10.97
2019-04-07T17:21:29.919Z,9.83
2019-04-07T17:24:01.395Z,9.40
2019-04-07T17:26:30.844Z,9.30
2019-04-07T17:28:59.985Z,9.00
2019-04-07T17:31:33.615Z,9.10
2019-04-07T17:34:07.370Z,9.60
2019-04-07T17:36:34.327Z,9.80
2019-04-07T17:39:11.781Z,10.00
2019-04-07T17:41:49.810Z,10.57
2019-04-07T17:44:28.617Z,10.60
2019-04-07T17:47:23.380Z,9.43
2019-04-07T17:50:14.718Z,10.23
2019-04-07T17:53:05.303Z,9.20
2019-04-07T17:55:52.706Z,8.97
2019-04-07T17:58:47.868Z,9.70
2019-04-07T18:01:41.382Z,10.80
2019-04-07T18:04:28.228Z,11.10
2019-04-07T18:07:18.960Z,11.70
2019-04-07T18:10:10.666Z,12.10
2019-04-07T18:12:55.974Z,13.53
2019-04-07T18:15:43.422Z,13.27
2019-04-07T18:18:36.722Z,13.17
2019-04-07T18:21:37.591Z,12.80
2019-04-07T18:24:20.659Z,13.80
2019-04-07T18:27:10.076Z,14.20
2019-04-07T18:29:49.168Z,12.60
2019-04-07T18:32:53.522Z,14.10
2019-04-07T18:36:05.057Z,14.50
2019-04-07T18:38:47.079Z,13.17
2019-04-07T18:41:36.482Z,15.40
2019-04-07T18:44:38.653Z,12.87
2019-04-07T18:47:28.115Z,12.10
2019-04-07T18:50:16.606Z,13.13
2019-04-07T18:53:03.858Z,11.00
2019-04-07T18:55:45.174Z,13.10
2019-04-07T18:58:33.298Z,12.40
2019-04-07T19:01:34.215Z,11.27
2019-04-07T19:04:35.965Z,11.00
2019-04-07T19:07:37.902Z,10.77
2019-04-07T19:10:25.429Z,10.90
2019-04-07T19:13:10.997Z,11.27
2019-04-07T19:16:04.364Z,11.67
2019-04-07T19:19:00.769Z,11.00
2019-04-07T19:21:45.077Z,11.33
2019-04-07T19:24:31.431Z,12.03
2019-04-07T19:27:23.252Z,10.43
2019-04-07T19:30:22.946Z,10.83
2019-04-07T19:33:24.553Z,10.50
2019-04-07T19:36:11.196Z,10.70
2019-04-07T19:39:14.739Z,11.20
2019-04-07T19:41:53.462Z,10.13
2019-04-07T19:44:42.881Z,11.97
2019-04-07T19:47:26.171Z,10.20
2019-04-07T19:50:13.417Z,10.03
2019-04-07T19:53:20.333Z,10.97
2019-04-07T19:56:12.270Z,10.67
2019-04-07T19:58:59.838Z,10.60
2019-04-07T20:01:51.110Z,9.87
2019-04-07T20:04:42.289Z,11.77
2019-04-07T20:07:17.916Z,10.73
2019-04-07T20:10:11.014Z,11.53
2019-04-07T20:13:14.246Z,8.20
2019-04-07T20:16:12.890Z,8.37
2019-04-07T20:18:59.577Z,9.23
2019-04-07T20:21:41.421Z,9.17
2019-04-07T20:24:38.035Z,8.47
2019-04-07T20:27:33.892Z,7.17
2019-04-07T20:30:25.404Z,8.37
2019-04-07T20:33:13.547Z,8.10
2019-04-07T20:35:52.159Z,7.83
2019-04-07T20:38:59.218Z,9.30
2019-04-07T20:41:38.671Z,7.60
2019-04-07T20:44:57.129Z,7.30
2019-04-07T20:47:36.199Z,8.13
2019-04-07T20:50:23.805Z,8.70
2019-04-07T20:53:13.375Z,6.40
2019-04-07T20:55:48.100Z,7.47
2019-04-07T20:58:53.894Z,8.90
2019-04-07T21:01:37.019Z,8.00
2019-04-07T21:04:24.001Z,7.83
2019-04-07T21:07:15.356Z,8.80
2019-04-07T21:10:21.467Z,7.33
2019-04-07T21:13:00.317Z,9.00
2019-04-07T21:15:40.033Z,7.77
2019-04-07T21:18:22.255Z,7.50
2019-04-07T21:21:12.295Z,8.63
2019-04-07T21:23:51.825Z,7.87
2019-04-07T21:26:33.517Z,7.70
2019-04-07T21:29:26.075Z,7.23
2019-04-07T21:32:18.817Z,7.20
2019-04-07T21:35:06.134Z,8.17
2019-04-07T21:37:56.256Z,7.57
2019-04-07T21:40:56.436Z,7.43
2019-04-07T21:43:34.000Z,8.63
2019-04-07T21:46:23.908Z,7.33
2019-04-07T21:49:11.932Z,6.03
2019-04-07T21:51:59.101Z,8.70
2019-04-07T21:54:44.185Z,8.50
2019-04-07T21:57:43.831Z,8.70
2019-04-07T22:00:43.822Z,7.00
2019-04-07T22:03:47.591Z,7.40
2019-04-07T22:06:39.839Z,6.77
2019-04-07T22:09:19.419Z,6.93
2019-04-07T22:11:49.437Z,7.10
2019-04-07T22:14:18.917Z,7.10
2019-04-07T22:16:51.275Z,6.27
2019-04-07T22:19:25.262Z,8.00
2019-04-07T22:21:56.899Z,7.37
2019-04-07T22:24:31.284Z,6.47
2019-04-07T22:26:57.502Z,6.67
2019-04-07T22:29:26.887Z,6.47
2019-04-07T22:31:59.800Z,6.97
2019-04-07T22:34:35.647Z,8.03
2019-04-07T22:37:10.116Z,6.73
2019-04-07T22:39:38.259Z,6.77
2019-04-07T22:42:12.811Z,7.13
2019-04-07T22:44:39.796Z,7.40
2019-04-07T22:47:10.897Z,6.73
2019-04-07T22:49:41.616Z,6.40
2019-04-07T22:52:11.833Z,6.80
2019-04-07T22:54:42.696Z,6.77
2019-04-07T22:57:16.304Z,7.13
2019-04-07T22:59:50.408Z,7.17
2019-04-07T23:02:25.387Z,5.97
2019-04-07T23:04:58.755Z,6.60
2019-04-07T23:07:29.687Z,7.83
2019-04-07T23:09:59.297Z,8.10
2019-04-07T23:12:30.538Z,7.90
2019-04-07T23:15:02.230Z,8.17
2019-04-07T23:17:32.208Z,7.70
2019-04-07T23:20:02.353Z,7.00
2019-04-07T23:22:31.495Z,7.87
2019-04-07T23:25:02.380Z,7.67
2019-04-07T23:27:36.040Z,6.60
2019-04-07T23:30:11.011Z,8.10
2019-04-07T23:32:41.738Z,6.43
2019-04-07T23:35:11.032Z,6.60
2019-04-07T23:37:43.757Z,5.53
2019-04-07T23:40:16.314Z,6.00
2019-04-07T23:42:45.437Z,5.33
2019-04-07T23:45:16.606Z,4.70
2019-04-07T23:47:46.922Z,4.40
2019-04-07T23:50:16.741Z,4.90
2019-04-07T23:52:45.955Z,4.07
2019-04-07T23:55:18.210Z,4.53
2019-04-07T23:57:47.285Z,4.00
